<?xml version="1.0" encoding="UTF-8" standalone="no" ?>
<gpx xmlns="http://www.topografix.com/GPX/1/1" xmlns:xsi="http://www.w3.org/2001/XMLSchema-instance" xsi:schemaLocation="http://www.topografix.com/GPX/1/1 http://www.topografix.com/GPX/1/1/gpx.xsd" version="1.1" creator="VisuGPX - https://www.visugpx.com">
  <metadata>
    <name>Brétignolles-sur-Mer_St-Gilles-Croix-de-Vie (Aller)</name>
    <desc><![CDATA[Aller de Brétignolles-sur-Mer à St-Gilles-Croix-de-Vie]]></desc>
  </metadata>
  <trk>
    <name><![CDATA[2024-07-03 12:22:24]]></name>
    <trkseg>
      <trkpt lat="46.66415" lon="-1.90605">
        <ele>-1.34</ele>
        <time>2024-07-03T09:30:52Z</time>
      </trkpt>
      <trkpt lat="46.66415" lon="-1.90605">
        <ele>-1.36</ele>
        <time>2024-07-03T09:30:53Z</time>
      </trkpt>
      <trkpt lat="46.66413" lon="-1.90606">
        <ele>-1.33</ele>
        <time>2024-07-03T09:31:32Z</time>
      </trkpt>
      <trkpt lat="46.66412" lon="-1.90606">
        <ele>-0.97</ele>
        <time>2024-07-03T09:31:58Z</time>
      </trkpt>
      <trkpt lat="46.66413" lon="-1.90605">
        <ele>-0.99</ele>
        <time>2024-07-03T09:32:42Z</time>
      </trkpt>
      <trkpt lat="46.66414" lon="-1.90606">
        <ele>-0.9</ele>
        <time>2024-07-03T09:32:59Z</time>
      </trkpt>
      <trkpt lat="46.66421" lon="-1.90604">
        <ele>-0.89</ele>
        <time>2024-07-03T09:33:03Z</time>
      </trkpt>
      <trkpt lat="46.66423" lon="-1.90603">
        <ele>-0.89</ele>
        <time>2024-07-03T09:33:04Z</time>
      </trkpt>
      <trkpt lat="46.66426" lon="-1.90601">
        <ele>-0.91</ele>
        <time>2024-07-03T09:33:05Z</time>
      </trkpt>
      <trkpt lat="46.66429" lon="-1.90599">
        <ele>-0.92</ele>
        <time>2024-07-03T09:33:06Z</time>
      </trkpt>
      <trkpt lat="46.66479" lon="-1.90592">
        <ele>-1.37</ele>
        <time>2024-07-03T09:33:23Z</time>
      </trkpt>
      <trkpt lat="46.66517" lon="-1.90604">
        <ele>-1.95</ele>
        <time>2024-07-03T09:33:35Z</time>
      </trkpt>
      <trkpt lat="46.66548" lon="-1.90602">
        <ele>-2.24</ele>
        <time>2024-07-03T09:33:46Z</time>
      </trkpt>
      <trkpt lat="46.66586" lon="-1.90605">
        <ele>-2.03</ele>
        <time>2024-07-03T09:33:58Z</time>
      </trkpt>
      <trkpt lat="46.66592" lon="-1.90606">
        <ele>-1.66</ele>
        <time>2024-07-03T09:34:01Z</time>
      </trkpt>
      <trkpt lat="46.66595" lon="-1.90607">
        <ele>-1.4</ele>
        <time>2024-07-03T09:34:02Z</time>
      </trkpt>
      <trkpt lat="46.66602" lon="-1.90609">
        <ele>-1.24</ele>
        <time>2024-07-03T09:34:03Z</time>
      </trkpt>
      <trkpt lat="46.66643" lon="-1.90618">
        <ele>-0.63</ele>
        <time>2024-07-03T09:34:14Z</time>
      </trkpt>
      <trkpt lat="46.66659" lon="-1.90625">
        <ele>-0.71</ele>
        <time>2024-07-03T09:34:18Z</time>
      </trkpt>
      <trkpt lat="46.66662" lon="-1.90628">
        <ele>-0.78</ele>
        <time>2024-07-03T09:34:19Z</time>
      </trkpt>
      <trkpt lat="46.66668" lon="-1.90638">
        <ele>-0.86</ele>
        <time>2024-07-03T09:34:21Z</time>
      </trkpt>
      <trkpt lat="46.66669" lon="-1.90643">
        <ele>-0.88</ele>
        <time>2024-07-03T09:34:22Z</time>
      </trkpt>
      <trkpt lat="46.66687" lon="-1.90693">
        <ele>-2.24</ele>
        <time>2024-07-03T09:34:33Z</time>
      </trkpt>
      <trkpt lat="46.667" lon="-1.90752">
        <ele>-2.47</ele>
        <time>2024-07-03T09:34:43Z</time>
      </trkpt>
      <trkpt lat="46.66699" lon="-1.90809">
        <ele>-2.52</ele>
        <time>2024-07-03T09:34:53Z</time>
      </trkpt>
      <trkpt lat="46.66701" lon="-1.90854">
        <ele>-2.53</ele>
        <time>2024-07-03T09:34:59Z</time>
      </trkpt>
      <trkpt lat="46.66694" lon="-1.9091">
        <ele>-2.4</ele>
        <time>2024-07-03T09:35:10Z</time>
      </trkpt>
      <trkpt lat="46.6668" lon="-1.90963">
        <ele>-2.23</ele>
        <time>2024-07-03T09:35:21Z</time>
      </trkpt>
      <trkpt lat="46.66675" lon="-1.91032">
        <ele>-1.86</ele>
        <time>2024-07-03T09:35:33Z</time>
      </trkpt>
      <trkpt lat="46.6668" lon="-1.9109">
        <ele>-1.78</ele>
        <time>2024-07-03T09:35:46Z</time>
      </trkpt>
      <trkpt lat="46.66682" lon="-1.91099">
        <ele>-1.78</ele>
        <time>2024-07-03T09:35:49Z</time>
      </trkpt>
      <trkpt lat="46.66684" lon="-1.911">
        <ele>-1.78</ele>
        <time>2024-07-03T09:35:50Z</time>
      </trkpt>
      <trkpt lat="46.66686" lon="-1.911">
        <ele>-1.78</ele>
        <time>2024-07-03T09:35:51Z</time>
      </trkpt>
      <trkpt lat="46.66709" lon="-1.91086">
        <ele>-1.98</ele>
        <time>2024-07-03T09:36:03Z</time>
      </trkpt>
      <trkpt lat="46.66739" lon="-1.91056">
        <ele>-2.29</ele>
        <time>2024-07-03T09:36:15Z</time>
      </trkpt>
      <trkpt lat="46.66751" lon="-1.9104">
        <ele>-2.13</ele>
        <time>2024-07-03T09:36:26Z</time>
      </trkpt>
      <trkpt lat="46.66752" lon="-1.91038">
        <ele>-2.13</ele>
        <time>2024-07-03T09:36:28Z</time>
      </trkpt>
      <trkpt lat="46.66753" lon="-1.91037">
        <ele>-2.28</ele>
        <time>2024-07-03T09:36:44Z</time>
      </trkpt>
      <trkpt lat="46.66751" lon="-1.91039">
        <ele>-2.3</ele>
        <time>2024-07-03T09:36:47Z</time>
      </trkpt>
      <trkpt lat="46.66746" lon="-1.91038">
        <ele>-2.52</ele>
        <time>2024-07-03T09:37:06Z</time>
      </trkpt>
      <trkpt lat="46.66746" lon="-1.91035">
        <ele>-2.54</ele>
        <time>2024-07-03T09:37:07Z</time>
      </trkpt>
      <trkpt lat="46.66747" lon="-1.9103">
        <ele>-2.59</ele>
        <time>2024-07-03T09:37:08Z</time>
      </trkpt>
      <trkpt lat="46.66746" lon="-1.91026">
        <ele>-2.61</ele>
        <time>2024-07-03T09:37:09Z</time>
      </trkpt>
      <trkpt lat="46.66747" lon="-1.91001">
        <ele>-2.66</ele>
        <time>2024-07-03T09:37:15Z</time>
      </trkpt>
      <trkpt lat="46.66759" lon="-1.90962">
        <ele>-2.77</ele>
        <time>2024-07-03T09:37:25Z</time>
      </trkpt>
      <trkpt lat="46.66786" lon="-1.90936">
        <ele>-2.91</ele>
        <time>2024-07-03T09:37:37Z</time>
      </trkpt>
      <trkpt lat="46.66816" lon="-1.90919">
        <ele>-2.89</ele>
        <time>2024-07-03T09:37:46Z</time>
      </trkpt>
      <trkpt lat="46.66819" lon="-1.90919">
        <ele>-2.89</ele>
        <time>2024-07-03T09:37:47Z</time>
      </trkpt>
      <trkpt lat="46.66824" lon="-1.90919">
        <ele>-2.87</ele>
        <time>2024-07-03T09:37:49Z</time>
      </trkpt>
      <trkpt lat="46.66827" lon="-1.90918">
        <ele>-2.86</ele>
        <time>2024-07-03T09:37:50Z</time>
      </trkpt>
      <trkpt lat="46.66829" lon="-1.90917">
        <ele>-2.8</ele>
        <time>2024-07-03T09:37:51Z</time>
      </trkpt>
      <trkpt lat="46.6686" lon="-1.90894">
        <ele>-2.48</ele>
        <time>2024-07-03T09:38:02Z</time>
      </trkpt>
      <trkpt lat="46.66888" lon="-1.90865">
        <ele>-1.95</ele>
        <time>2024-07-03T09:38:13Z</time>
      </trkpt>
      <trkpt lat="46.66921" lon="-1.90842">
        <ele>-1.96</ele>
        <time>2024-07-03T09:38:25Z</time>
      </trkpt>
      <trkpt lat="46.66923" lon="-1.90841">
        <ele>-1.96</ele>
        <time>2024-07-03T09:38:26Z</time>
      </trkpt>
      <trkpt lat="46.66926" lon="-1.9084">
        <ele>-1.96</ele>
        <time>2024-07-03T09:38:27Z</time>
      </trkpt>
      <trkpt lat="46.66969" lon="-1.90835">
        <ele>-1.67</ele>
        <time>2024-07-03T09:38:40Z</time>
      </trkpt>
      <trkpt lat="46.67004" lon="-1.90835">
        <ele>-1.77</ele>
        <time>2024-07-03T09:38:50Z</time>
      </trkpt>
      <trkpt lat="46.67046" lon="-1.90848">
        <ele>-1.87</ele>
        <time>2024-07-03T09:39:01Z</time>
      </trkpt>
      <trkpt lat="46.67088" lon="-1.90864">
        <ele>-2</ele>
        <time>2024-07-03T09:39:13Z</time>
      </trkpt>
      <trkpt lat="46.67105" lon="-1.9087">
        <ele>-2.02</ele>
        <time>2024-07-03T09:39:21Z</time>
      </trkpt>
      <trkpt lat="46.67106" lon="-1.90868">
        <ele>-2.2</ele>
        <time>2024-07-03T09:39:38Z</time>
      </trkpt>
      <trkpt lat="46.67108" lon="-1.90866">
        <ele>-2.19</ele>
        <time>2024-07-03T09:39:47Z</time>
      </trkpt>
      <trkpt lat="46.67109" lon="-1.90865">
        <ele>-2.2</ele>
        <time>2024-07-03T09:39:48Z</time>
      </trkpt>
      <trkpt lat="46.67109" lon="-1.90862">
        <ele>-2.2</ele>
        <time>2024-07-03T09:39:49Z</time>
      </trkpt>
      <trkpt lat="46.67111" lon="-1.9086">
        <ele>-2.19</ele>
        <time>2024-07-03T09:39:50Z</time>
      </trkpt>
      <trkpt lat="46.67112" lon="-1.90858">
        <ele>-2.19</ele>
        <time>2024-07-03T09:39:51Z</time>
      </trkpt>
      <trkpt lat="46.67114" lon="-1.90856">
        <ele>-2.19</ele>
        <time>2024-07-03T09:39:52Z</time>
      </trkpt>
      <trkpt lat="46.67138" lon="-1.90824">
        <ele>-2.36</ele>
        <time>2024-07-03T09:40:04Z</time>
      </trkpt>
      <trkpt lat="46.67152" lon="-1.90808">
        <ele>-2.36</ele>
        <time>2024-07-03T09:40:13Z</time>
      </trkpt>
      <trkpt lat="46.67154" lon="-1.90809">
        <ele>-2.36</ele>
        <time>2024-07-03T09:40:14Z</time>
      </trkpt>
      <trkpt lat="46.67155" lon="-1.90811">
        <ele>-2.36</ele>
        <time>2024-07-03T09:40:15Z</time>
      </trkpt>
      <trkpt lat="46.67157" lon="-1.90813">
        <ele>-2.36</ele>
        <time>2024-07-03T09:40:16Z</time>
      </trkpt>
      <trkpt lat="46.67158" lon="-1.90816">
        <ele>-2.36</ele>
        <time>2024-07-03T09:40:17Z</time>
      </trkpt>
      <trkpt lat="46.67178" lon="-1.90852">
        <ele>-2.22</ele>
        <time>2024-07-03T09:40:28Z</time>
      </trkpt>
      <trkpt lat="46.67198" lon="-1.90894">
        <ele>-2.1</ele>
        <time>2024-07-03T09:40:37Z</time>
      </trkpt>
      <trkpt lat="46.67248" lon="-1.90964">
        <ele>-1.95</ele>
        <time>2024-07-03T09:40:52Z</time>
      </trkpt>
      <trkpt lat="46.67261" lon="-1.90982">
        <ele>-2.11</ele>
        <time>2024-07-03T09:40:56Z</time>
      </trkpt>
      <trkpt lat="46.6731" lon="-1.9108">
        <ele>-2.92</ele>
        <time>2024-07-03T09:41:14Z</time>
      </trkpt>
      <trkpt lat="46.67349" lon="-1.91159">
        <ele>-3.2</ele>
        <time>2024-07-03T09:41:30Z</time>
      </trkpt>
      <trkpt lat="46.67363" lon="-1.91195">
        <ele>-3.04</ele>
        <time>2024-07-03T09:41:42Z</time>
      </trkpt>
      <trkpt lat="46.67381" lon="-1.91248">
        <ele>-2.93</ele>
        <time>2024-07-03T09:41:54Z</time>
      </trkpt>
      <trkpt lat="46.67404" lon="-1.91296">
        <ele>-2.87</ele>
        <time>2024-07-03T09:42:06Z</time>
      </trkpt>
      <trkpt lat="46.67424" lon="-1.91336">
        <ele>-2.54</ele>
        <time>2024-07-03T09:42:16Z</time>
      </trkpt>
      <trkpt lat="46.67445" lon="-1.91371">
        <ele>-1.76</ele>
        <time>2024-07-03T09:42:28Z</time>
      </trkpt>
      <trkpt lat="46.67459" lon="-1.91391">
        <ele>-1.12</ele>
        <time>2024-07-03T09:42:42Z</time>
      </trkpt>
      <trkpt lat="46.67465" lon="-1.91397">
        <ele>-0.95</ele>
        <time>2024-07-03T09:43:16Z</time>
      </trkpt>
      <trkpt lat="46.67467" lon="-1.91397">
        <ele>-0.94</ele>
        <time>2024-07-03T09:43:17Z</time>
      </trkpt>
      <trkpt lat="46.67468" lon="-1.91398">
        <ele>-0.92</ele>
        <time>2024-07-03T09:43:18Z</time>
      </trkpt>
      <trkpt lat="46.67469" lon="-1.91399">
        <ele>-0.91</ele>
        <time>2024-07-03T09:43:19Z</time>
      </trkpt>
      <trkpt lat="46.6747" lon="-1.91402">
        <ele>-0.91</ele>
        <time>2024-07-03T09:43:20Z</time>
      </trkpt>
      <trkpt lat="46.67471" lon="-1.91405">
        <ele>-0.91</ele>
        <time>2024-07-03T09:43:21Z</time>
      </trkpt>
      <trkpt lat="46.67472" lon="-1.91409">
        <ele>-0.91</ele>
        <time>2024-07-03T09:43:22Z</time>
      </trkpt>
      <trkpt lat="46.67473" lon="-1.91411">
        <ele>-0.91</ele>
        <time>2024-07-03T09:43:23Z</time>
      </trkpt>
      <trkpt lat="46.67474" lon="-1.91413">
        <ele>-0.91</ele>
        <time>2024-07-03T09:43:24Z</time>
      </trkpt>
      <trkpt lat="46.67476" lon="-1.91414">
        <ele>-0.9</ele>
        <time>2024-07-03T09:43:25Z</time>
      </trkpt>
      <trkpt lat="46.67479" lon="-1.91414">
        <ele>-0.9</ele>
        <time>2024-07-03T09:43:26Z</time>
      </trkpt>
      <trkpt lat="46.67481" lon="-1.91415">
        <ele>-0.89</ele>
        <time>2024-07-03T09:43:27Z</time>
      </trkpt>
      <trkpt lat="46.67483" lon="-1.91417">
        <ele>-0.84</ele>
        <time>2024-07-03T09:43:28Z</time>
      </trkpt>
      <trkpt lat="46.67484" lon="-1.91419">
        <ele>-0.82</ele>
        <time>2024-07-03T09:43:29Z</time>
      </trkpt>
      <trkpt lat="46.67485" lon="-1.91421">
        <ele>-0.78</ele>
        <time>2024-07-03T09:43:30Z</time>
      </trkpt>
      <trkpt lat="46.67486" lon="-1.91423">
        <ele>-0.75</ele>
        <time>2024-07-03T09:43:31Z</time>
      </trkpt>
      <trkpt lat="46.67486" lon="-1.91425">
        <ele>-0.72</ele>
        <time>2024-07-03T09:43:32Z</time>
      </trkpt>
      <trkpt lat="46.67487" lon="-1.91428">
        <ele>-0.7</ele>
        <time>2024-07-03T09:43:33Z</time>
      </trkpt>
      <trkpt lat="46.67504" lon="-1.91464">
        <ele>-0.69</ele>
        <time>2024-07-03T09:43:46Z</time>
      </trkpt>
      <trkpt lat="46.6753" lon="-1.9151">
        <ele>-0.87</ele>
        <time>2024-07-03T09:44:02Z</time>
      </trkpt>
      <trkpt lat="46.67549" lon="-1.91551">
        <ele>-0.78</ele>
        <time>2024-07-03T09:44:15Z</time>
      </trkpt>
      <trkpt lat="46.67572" lon="-1.91604">
        <ele>-0.64</ele>
        <time>2024-07-03T09:44:29Z</time>
      </trkpt>
      <trkpt lat="46.67597" lon="-1.91662">
        <ele>-0.63</ele>
        <time>2024-07-03T09:44:44Z</time>
      </trkpt>
      <trkpt lat="46.67626" lon="-1.91721">
        <ele>-0.29</ele>
        <time>2024-07-03T09:44:59Z</time>
      </trkpt>
      <trkpt lat="46.6765" lon="-1.91771">
        <ele>-0.17</ele>
        <time>2024-07-03T09:45:12Z</time>
      </trkpt>
      <trkpt lat="46.67689" lon="-1.91844">
        <ele>-0.82</ele>
        <time>2024-07-03T09:45:29Z</time>
      </trkpt>
      <trkpt lat="46.67726" lon="-1.91906">
        <ele>-1.08</ele>
        <time>2024-07-03T09:45:45Z</time>
      </trkpt>
      <trkpt lat="46.67755" lon="-1.91959">
        <ele>-1.28</ele>
        <time>2024-07-03T09:45:58Z</time>
      </trkpt>
      <trkpt lat="46.67761" lon="-1.91969">
        <ele>-1.43</ele>
        <time>2024-07-03T09:46:00Z</time>
      </trkpt>
      <trkpt lat="46.67795" lon="-1.92028">
        <ele>-2.02</ele>
        <time>2024-07-03T09:46:14Z</time>
      </trkpt>
      <trkpt lat="46.67827" lon="-1.92099">
        <ele>-2.02</ele>
        <time>2024-07-03T09:46:29Z</time>
      </trkpt>
      <trkpt lat="46.67849" lon="-1.92177">
        <ele>-2.2</ele>
        <time>2024-07-03T09:46:45Z</time>
      </trkpt>
      <trkpt lat="46.67879" lon="-1.92211">
        <ele>-2.3</ele>
        <time>2024-07-03T09:47:01Z</time>
      </trkpt>
      <trkpt lat="46.67895" lon="-1.92222">
        <ele>-2.02</ele>
        <time>2024-07-03T09:47:12Z</time>
      </trkpt>
      <trkpt lat="46.679" lon="-1.92224">
        <ele>-1.49</ele>
        <time>2024-07-03T09:47:57Z</time>
      </trkpt>
      <trkpt lat="46.67901" lon="-1.92225">
        <ele>-1.49</ele>
        <time>2024-07-03T09:47:58Z</time>
      </trkpt>
      <trkpt lat="46.67903" lon="-1.92226">
        <ele>-1.5</ele>
        <time>2024-07-03T09:47:59Z</time>
      </trkpt>
      <trkpt lat="46.67906" lon="-1.92226">
        <ele>-1.5</ele>
        <time>2024-07-03T09:48:00Z</time>
      </trkpt>
      <trkpt lat="46.67908" lon="-1.92227">
        <ele>-1.49</ele>
        <time>2024-07-03T09:48:01Z</time>
      </trkpt>
      <trkpt lat="46.6791" lon="-1.92227">
        <ele>-1.49</ele>
        <time>2024-07-03T09:48:02Z</time>
      </trkpt>
      <trkpt lat="46.67912" lon="-1.92228">
        <ele>-1.49</ele>
        <time>2024-07-03T09:48:03Z</time>
      </trkpt>
      <trkpt lat="46.67914" lon="-1.92229">
        <ele>-1.49</ele>
        <time>2024-07-03T09:48:04Z</time>
      </trkpt>
      <trkpt lat="46.67944" lon="-1.92255">
        <ele>-1.4</ele>
        <time>2024-07-03T09:48:16Z</time>
      </trkpt>
      <trkpt lat="46.67978" lon="-1.92297">
        <ele>-0.82</ele>
        <time>2024-07-03T09:48:29Z</time>
      </trkpt>
      <trkpt lat="46.67993" lon="-1.92311">
        <ele>-0.76</ele>
        <time>2024-07-03T09:48:33Z</time>
      </trkpt>
      <trkpt lat="46.68041" lon="-1.92363">
        <ele>-0.38</ele>
        <time>2024-07-03T09:48:50Z</time>
      </trkpt>
      <trkpt lat="46.68056" lon="-1.92381">
        <ele>0.05</ele>
        <time>2024-07-03T09:48:58Z</time>
      </trkpt>
      <trkpt lat="46.68057" lon="-1.92383">
        <ele>0.11</ele>
        <time>2024-07-03T09:48:59Z</time>
      </trkpt>
      <trkpt lat="46.68059" lon="-1.92386">
        <ele>0.16</ele>
        <time>2024-07-03T09:49:00Z</time>
      </trkpt>
      <trkpt lat="46.68078" lon="-1.92435">
        <ele>0.82</ele>
        <time>2024-07-03T09:49:15Z</time>
      </trkpt>
      <trkpt lat="46.68099" lon="-1.92492">
        <ele>1.14</ele>
        <time>2024-07-03T09:49:32Z</time>
      </trkpt>
      <trkpt lat="46.68127" lon="-1.92543">
        <ele>1.37</ele>
        <time>2024-07-03T09:49:48Z</time>
      </trkpt>
      <trkpt lat="46.68156" lon="-1.92582">
        <ele>1.07</ele>
        <time>2024-07-03T09:50:02Z</time>
      </trkpt>
      <trkpt lat="46.68177" lon="-1.9262">
        <ele>0.69</ele>
        <time>2024-07-03T09:50:16Z</time>
      </trkpt>
      <trkpt lat="46.68196" lon="-1.92657">
        <ele>0.41</ele>
        <time>2024-07-03T09:50:29Z</time>
      </trkpt>
      <trkpt lat="46.68216" lon="-1.92688">
        <ele>0.36</ele>
        <time>2024-07-03T09:50:40Z</time>
      </trkpt>
      <trkpt lat="46.6825" lon="-1.92726">
        <ele>0.52</ele>
        <time>2024-07-03T09:50:57Z</time>
      </trkpt>
      <trkpt lat="46.68279" lon="-1.92764">
        <ele>0.92</ele>
        <time>2024-07-03T09:51:12Z</time>
      </trkpt>
      <trkpt lat="46.68304" lon="-1.9281">
        <ele>0.86</ele>
        <time>2024-07-03T09:51:27Z</time>
      </trkpt>
      <trkpt lat="46.68335" lon="-1.92856">
        <ele>0.33</ele>
        <time>2024-07-03T09:51:44Z</time>
      </trkpt>
      <trkpt lat="46.68364" lon="-1.92901">
        <ele>-0.07</ele>
        <time>2024-07-03T09:51:59Z</time>
      </trkpt>
      <trkpt lat="46.6839" lon="-1.92935">
        <ele>-0.48</ele>
        <time>2024-07-03T09:52:11Z</time>
      </trkpt>
      <trkpt lat="46.68403" lon="-1.92954">
        <ele>-1.04</ele>
        <time>2024-07-03T09:52:24Z</time>
      </trkpt>
      <trkpt lat="46.68404" lon="-1.92952">
        <ele>-1.19</ele>
        <time>2024-07-03T09:53:24Z</time>
      </trkpt>
      <trkpt lat="46.68407" lon="-1.92956">
        <ele>-1.27</ele>
        <time>2024-07-03T09:53:38Z</time>
      </trkpt>
      <trkpt lat="46.68411" lon="-1.92962">
        <ele>-1.24</ele>
        <time>2024-07-03T09:53:41Z</time>
      </trkpt>
      <trkpt lat="46.68413" lon="-1.92964">
        <ele>-1.22</ele>
        <time>2024-07-03T09:53:42Z</time>
      </trkpt>
      <trkpt lat="46.68439" lon="-1.93005">
        <ele>-1.13</ele>
        <time>2024-07-03T09:53:56Z</time>
      </trkpt>
      <trkpt lat="46.68476" lon="-1.93048">
        <ele>-1.14</ele>
        <time>2024-07-03T09:54:10Z</time>
      </trkpt>
      <trkpt lat="46.68524" lon="-1.93096">
        <ele>-1.47</ele>
        <time>2024-07-03T09:54:25Z</time>
      </trkpt>
      <trkpt lat="46.68571" lon="-1.9314">
        <ele>-1.99</ele>
        <time>2024-07-03T09:54:41Z</time>
      </trkpt>
      <trkpt lat="46.68619" lon="-1.93183">
        <ele>-2.02</ele>
        <time>2024-07-03T09:54:57Z</time>
      </trkpt>
      <trkpt lat="46.68629" lon="-1.93192">
        <ele>-2.14</ele>
        <time>2024-07-03T09:55:08Z</time>
      </trkpt>
      <trkpt lat="46.68636" lon="-1.93199">
        <ele>-2.33</ele>
        <time>2024-07-03T09:55:58Z</time>
      </trkpt>
      <trkpt lat="46.6864" lon="-1.93201">
        <ele>-2.35</ele>
        <time>2024-07-03T09:56:00Z</time>
      </trkpt>
      <trkpt lat="46.68643" lon="-1.93203">
        <ele>-2.35</ele>
        <time>2024-07-03T09:56:01Z</time>
      </trkpt>
      <trkpt lat="46.68673" lon="-1.93219">
        <ele>-2.3</ele>
        <time>2024-07-03T09:56:12Z</time>
      </trkpt>
      <trkpt lat="46.68722" lon="-1.93233">
        <ele>-2.41</ele>
        <time>2024-07-03T09:56:27Z</time>
      </trkpt>
      <trkpt lat="46.68784" lon="-1.9325">
        <ele>-2.62</ele>
        <time>2024-07-03T09:56:44Z</time>
      </trkpt>
      <trkpt lat="46.68826" lon="-1.93244">
        <ele>-2.83</ele>
        <time>2024-07-03T09:56:57Z</time>
      </trkpt>
      <trkpt lat="46.68869" lon="-1.93215">
        <ele>-2.56</ele>
        <time>2024-07-03T09:57:13Z</time>
      </trkpt>
      <trkpt lat="46.68922" lon="-1.9318">
        <ele>-3.37</ele>
        <time>2024-07-03T09:57:31Z</time>
      </trkpt>
      <trkpt lat="46.68962" lon="-1.93171">
        <ele>-3.26</ele>
        <time>2024-07-03T09:57:45Z</time>
      </trkpt>
      <trkpt lat="46.69007" lon="-1.93167">
        <ele>-3.31</ele>
        <time>2024-07-03T09:57:59Z</time>
      </trkpt>
      <trkpt lat="46.69048" lon="-1.93163">
        <ele>-3.4</ele>
        <time>2024-07-03T09:58:13Z</time>
      </trkpt>
      <trkpt lat="46.69083" lon="-1.93179">
        <ele>-3.37</ele>
        <time>2024-07-03T09:58:26Z</time>
      </trkpt>
      <trkpt lat="46.69101" lon="-1.93202">
        <ele>-3.19</ele>
        <time>2024-07-03T09:58:37Z</time>
      </trkpt>
      <trkpt lat="46.69102" lon="-1.93205">
        <ele>-3.19</ele>
        <time>2024-07-03T09:58:38Z</time>
      </trkpt>
      <trkpt lat="46.69103" lon="-1.93208">
        <ele>-3.18</ele>
        <time>2024-07-03T09:58:39Z</time>
      </trkpt>
      <trkpt lat="46.69105" lon="-1.9321">
        <ele>-3.17</ele>
        <time>2024-07-03T09:58:40Z</time>
      </trkpt>
      <trkpt lat="46.69106" lon="-1.93212">
        <ele>-3.17</ele>
        <time>2024-07-03T09:58:41Z</time>
      </trkpt>
      <trkpt lat="46.69108" lon="-1.93215">
        <ele>-3.17</ele>
        <time>2024-07-03T09:58:42Z</time>
      </trkpt>
      <trkpt lat="46.69132" lon="-1.93255">
        <ele>-2.84</ele>
        <time>2024-07-03T09:58:57Z</time>
      </trkpt>
      <trkpt lat="46.69157" lon="-1.93298">
        <ele>-2.52</ele>
        <time>2024-07-03T09:59:13Z</time>
      </trkpt>
      <trkpt lat="46.69163" lon="-1.93314">
        <ele>-2</ele>
        <time>2024-07-03T09:59:27Z</time>
      </trkpt>
      <trkpt lat="46.69164" lon="-1.93315">
        <ele>-1.78</ele>
        <time>2024-07-03T10:00:25Z</time>
      </trkpt>
      <trkpt lat="46.69165" lon="-1.93321">
        <ele>-1.77</ele>
        <time>2024-07-03T10:00:32Z</time>
      </trkpt>
      <trkpt lat="46.69166" lon="-1.93323">
        <ele>-1.75</ele>
        <time>2024-07-03T10:00:33Z</time>
      </trkpt>
      <trkpt lat="46.69167" lon="-1.93324">
        <ele>-1.74</ele>
        <time>2024-07-03T10:00:34Z</time>
      </trkpt>
      <trkpt lat="46.69169" lon="-1.93324">
        <ele>-1.74</ele>
        <time>2024-07-03T10:00:35Z</time>
      </trkpt>
      <trkpt lat="46.69171" lon="-1.93325">
        <ele>-1.74</ele>
        <time>2024-07-03T10:00:36Z</time>
      </trkpt>
      <trkpt lat="46.69172" lon="-1.93326">
        <ele>-1.74</ele>
        <time>2024-07-03T10:00:37Z</time>
      </trkpt>
      <trkpt lat="46.69173" lon="-1.93327">
        <ele>-1.74</ele>
        <time>2024-07-03T10:00:38Z</time>
      </trkpt>
      <trkpt lat="46.69172" lon="-1.93336">
        <ele>-1.55</ele>
        <time>2024-07-03T10:01:28Z</time>
      </trkpt>
      <trkpt lat="46.69172" lon="-1.93338">
        <ele>-1.49</ele>
        <time>2024-07-03T10:01:29Z</time>
      </trkpt>
      <trkpt lat="46.69171" lon="-1.93341">
        <ele>-1.41</ele>
        <time>2024-07-03T10:01:30Z</time>
      </trkpt>
      <trkpt lat="46.69167" lon="-1.93386">
        <ele>-1.3</ele>
        <time>2024-07-03T10:01:45Z</time>
      </trkpt>
      <trkpt lat="46.69169" lon="-1.93388">
        <ele>-1.36</ele>
        <time>2024-07-03T10:01:46Z</time>
      </trkpt>
      <trkpt lat="46.69207" lon="-1.93419">
        <ele>-2.07</ele>
        <time>2024-07-03T10:02:00Z</time>
      </trkpt>
      <trkpt lat="46.6924" lon="-1.9345">
        <ele>-2.43</ele>
        <time>2024-07-03T10:02:14Z</time>
      </trkpt>
      <trkpt lat="46.6924" lon="-1.93466">
        <ele>-2.43</ele>
        <time>2024-07-03T10:02:18Z</time>
      </trkpt>
      <trkpt lat="46.6924" lon="-1.93469">
        <ele>-2.43</ele>
        <time>2024-07-03T10:02:19Z</time>
      </trkpt>
      <trkpt lat="46.69241" lon="-1.93471">
        <ele>-2.43</ele>
        <time>2024-07-03T10:02:20Z</time>
      </trkpt>
      <trkpt lat="46.69241" lon="-1.93474">
        <ele>-2.43</ele>
        <time>2024-07-03T10:02:21Z</time>
      </trkpt>
      <trkpt lat="46.69242" lon="-1.93478">
        <ele>-2.43</ele>
        <time>2024-07-03T10:02:22Z</time>
      </trkpt>
      <trkpt lat="46.69242" lon="-1.93481">
        <ele>-2.43</ele>
        <time>2024-07-03T10:02:23Z</time>
      </trkpt>
      <trkpt lat="46.69242" lon="-1.93485">
        <ele>-2.43</ele>
        <time>2024-07-03T10:02:24Z</time>
      </trkpt>
      <trkpt lat="46.69249" lon="-1.93526">
        <ele>-2.09</ele>
        <time>2024-07-03T10:02:35Z</time>
      </trkpt>
      <trkpt lat="46.69272" lon="-1.93558">
        <ele>-2.06</ele>
        <time>2024-07-03T10:02:48Z</time>
      </trkpt>
      <trkpt lat="46.69253" lon="-1.93598">
        <ele>-2.44</ele>
        <time>2024-07-03T10:03:00Z</time>
      </trkpt>
      <trkpt lat="46.69228" lon="-1.93649">
        <ele>-2.25</ele>
        <time>2024-07-03T10:03:15Z</time>
      </trkpt>
      <trkpt lat="46.69208" lon="-1.93706">
        <ele>-2</ele>
        <time>2024-07-03T10:03:30Z</time>
      </trkpt>
      <trkpt lat="46.69207" lon="-1.93759">
        <ele>-1.71</ele>
        <time>2024-07-03T10:03:43Z</time>
      </trkpt>
      <trkpt lat="46.69207" lon="-1.93815">
        <ele>-2.04</ele>
        <time>2024-07-03T10:03:57Z</time>
      </trkpt>
      <trkpt lat="46.6921" lon="-1.93861">
        <ele>-1.72</ele>
        <time>2024-07-03T10:04:12Z</time>
      </trkpt>
      <trkpt lat="46.69215" lon="-1.93883">
        <ele>-1.89</ele>
        <time>2024-07-03T10:04:25Z</time>
      </trkpt>
      <trkpt lat="46.69218" lon="-1.93886">
        <ele>-2.01</ele>
        <time>2024-07-03T10:04:57Z</time>
      </trkpt>
      <trkpt lat="46.69219" lon="-1.93892">
        <ele>-2.01</ele>
        <time>2024-07-03T10:05:00Z</time>
      </trkpt>
      <trkpt lat="46.69219" lon="-1.93894">
        <ele>-2.01</ele>
        <time>2024-07-03T10:05:01Z</time>
      </trkpt>
      <trkpt lat="46.69225" lon="-1.93937">
        <ele>-1.81</ele>
        <time>2024-07-03T10:05:13Z</time>
      </trkpt>
      <trkpt lat="46.69239" lon="-1.93988">
        <ele>-1.52</ele>
        <time>2024-07-03T10:05:26Z</time>
      </trkpt>
      <trkpt lat="46.69259" lon="-1.94051">
        <ele>-1.57</ele>
        <time>2024-07-03T10:05:40Z</time>
      </trkpt>
      <trkpt lat="46.69289" lon="-1.9412">
        <ele>-1.53</ele>
        <time>2024-07-03T10:05:55Z</time>
      </trkpt>
      <trkpt lat="46.69316" lon="-1.94166">
        <ele>-1.39</ele>
        <time>2024-07-03T10:06:08Z</time>
      </trkpt>
      <trkpt lat="46.69355" lon="-1.9423">
        <ele>-1.41</ele>
        <time>2024-07-03T10:06:23Z</time>
      </trkpt>
      <trkpt lat="46.69401" lon="-1.94297">
        <ele>-1.85</ele>
        <time>2024-07-03T10:06:40Z</time>
      </trkpt>
      <trkpt lat="46.69433" lon="-1.94337">
        <ele>-1.89</ele>
        <time>2024-07-03T10:06:51Z</time>
      </trkpt>
      <trkpt lat="46.69477" lon="-1.94397">
        <ele>-1.81</ele>
        <time>2024-07-03T10:07:07Z</time>
      </trkpt>
      <trkpt lat="46.69505" lon="-1.94448">
        <ele>-1.88</ele>
        <time>2024-07-03T10:07:20Z</time>
      </trkpt>
      <trkpt lat="46.6953" lon="-1.94502">
        <ele>-1.93</ele>
        <time>2024-07-03T10:07:33Z</time>
      </trkpt>
      <trkpt lat="46.69557" lon="-1.94552">
        <ele>-1.75</ele>
        <time>2024-07-03T10:07:47Z</time>
      </trkpt>
      <trkpt lat="46.69583" lon="-1.94579">
        <ele>-1.36</ele>
        <time>2024-07-03T10:08:00Z</time>
      </trkpt>
      <trkpt lat="46.69595" lon="-1.94593">
        <ele>-0.88</ele>
        <time>2024-07-03T10:08:07Z</time>
      </trkpt>
      <trkpt lat="46.69596" lon="-1.94595">
        <ele>-0.82</ele>
        <time>2024-07-03T10:08:08Z</time>
      </trkpt>
      <trkpt lat="46.69597" lon="-1.94598">
        <ele>-0.79</ele>
        <time>2024-07-03T10:08:09Z</time>
      </trkpt>
      <trkpt lat="46.69599" lon="-1.946">
        <ele>-0.77</ele>
        <time>2024-07-03T10:08:10Z</time>
      </trkpt>
      <trkpt lat="46.696" lon="-1.94602">
        <ele>-0.74</ele>
        <time>2024-07-03T10:08:11Z</time>
      </trkpt>
      <trkpt lat="46.69601" lon="-1.94604">
        <ele>-0.69</ele>
        <time>2024-07-03T10:08:12Z</time>
      </trkpt>
      <trkpt lat="46.69602" lon="-1.94606">
        <ele>-0.62</ele>
        <time>2024-07-03T10:08:13Z</time>
      </trkpt>
      <trkpt lat="46.69602" lon="-1.94609">
        <ele>-0.57</ele>
        <time>2024-07-03T10:08:14Z</time>
      </trkpt>
      <trkpt lat="46.69603" lon="-1.94612">
        <ele>-0.54</ele>
        <time>2024-07-03T10:08:15Z</time>
      </trkpt>
      <trkpt lat="46.69604" lon="-1.94615">
        <ele>-0.52</ele>
        <time>2024-07-03T10:08:16Z</time>
      </trkpt>
      <trkpt lat="46.69605" lon="-1.94617">
        <ele>-0.5</ele>
        <time>2024-07-03T10:08:17Z</time>
      </trkpt>
      <trkpt lat="46.69616" lon="-1.94653">
        <ele>-0.28</ele>
        <time>2024-07-03T10:08:29Z</time>
      </trkpt>
      <trkpt lat="46.69623" lon="-1.94688">
        <ele>0.02</ele>
        <time>2024-07-03T10:08:42Z</time>
      </trkpt>
      <trkpt lat="46.69624" lon="-1.94732">
        <ele>0.55</ele>
        <time>2024-07-03T10:08:54Z</time>
      </trkpt>
      <trkpt lat="46.69606" lon="-1.94773">
        <ele>0.61</ele>
        <time>2024-07-03T10:09:07Z</time>
      </trkpt>
      <trkpt lat="46.69582" lon="-1.94794">
        <ele>0.58</ele>
        <time>2024-07-03T10:09:21Z</time>
      </trkpt>
      <trkpt lat="46.69587" lon="-1.94797">
        <ele>0.69</ele>
        <time>2024-07-03T10:10:17Z</time>
      </trkpt>
      <trkpt lat="46.6959" lon="-1.94791">
        <ele>0.83</ele>
        <time>2024-07-03T10:10:37Z</time>
      </trkpt>
      <trkpt lat="46.69595" lon="-1.94788">
        <ele>0.55</ele>
        <time>2024-07-03T10:11:03Z</time>
      </trkpt>
      <trkpt lat="46.69593" lon="-1.94789">
        <ele>0.66</ele>
        <time>2024-07-03T10:11:31Z</time>
      </trkpt>
      <trkpt lat="46.69597" lon="-1.94787">
        <ele>0.69</ele>
        <time>2024-07-03T10:11:51Z</time>
      </trkpt>
      <trkpt lat="46.69596" lon="-1.94788">
        <ele>0.71</ele>
        <time>2024-07-03T10:12:07Z</time>
      </trkpt>
      <trkpt lat="46.69594" lon="-1.94788">
        <ele>0.56</ele>
        <time>2024-07-03T10:12:23Z</time>
      </trkpt>
      <trkpt lat="46.69594" lon="-1.94786">
        <ele>0.27</ele>
        <time>2024-07-03T10:12:52Z</time>
      </trkpt>
      <trkpt lat="46.69599" lon="-1.94783">
        <ele>0.14</ele>
        <time>2024-07-03T10:13:14Z</time>
      </trkpt>
      <trkpt lat="46.69594" lon="-1.94789">
        <ele>0.12</ele>
        <time>2024-07-03T10:13:42Z</time>
      </trkpt>
      <trkpt lat="46.69593" lon="-1.9479">
        <ele>0.68</ele>
        <time>2024-07-03T10:14:06Z</time>
      </trkpt>
      <trkpt lat="46.69589" lon="-1.94796">
        <ele>0.43</ele>
        <time>2024-07-03T10:14:35Z</time>
      </trkpt>
      <trkpt lat="46.69583" lon="-1.94798">
        <ele>0.74</ele>
        <time>2024-07-03T10:14:53Z</time>
      </trkpt>
      <trkpt lat="46.69578" lon="-1.94799">
        <ele>0.76</ele>
        <time>2024-07-03T10:15:08Z</time>
      </trkpt>
      <trkpt lat="46.69579" lon="-1.94803">
        <ele>0.36</ele>
        <time>2024-07-03T10:16:02Z</time>
      </trkpt>
      <trkpt lat="46.69579" lon="-1.94805">
        <ele>0.12</ele>
        <time>2024-07-03T10:16:33Z</time>
      </trkpt>
      <trkpt lat="46.69589" lon="-1.94791">
        <ele>0.47</ele>
        <time>2024-07-03T10:16:51Z</time>
      </trkpt>
      <trkpt lat="46.69591" lon="-1.94788">
        <ele>0.47</ele>
        <time>2024-07-03T10:17:06Z</time>
      </trkpt>
      <trkpt lat="46.69592" lon="-1.94788">
        <ele>0.6</ele>
        <time>2024-07-03T10:17:51Z</time>
      </trkpt>
      <trkpt lat="46.69596" lon="-1.94784">
        <ele>0.67</ele>
        <time>2024-07-03T10:18:16Z</time>
      </trkpt>
      <trkpt lat="46.69598" lon="-1.94781">
        <ele>0.66</ele>
        <time>2024-07-03T10:18:17Z</time>
      </trkpt>
      <trkpt lat="46.69598" lon="-1.9478">
        <ele>0.65</ele>
        <time>2024-07-03T10:18:18Z</time>
      </trkpt>
      <trkpt lat="46.69604" lon="-1.94769">
        <ele>0.39</ele>
        <time>2024-07-03T10:18:23Z</time>
      </trkpt>
      <trkpt lat="46.69606" lon="-1.94766">
        <ele>0.33</ele>
        <time>2024-07-03T10:18:24Z</time>
      </trkpt>
      <trkpt lat="46.6961" lon="-1.9476">
        <ele>0.33</ele>
        <time>2024-07-03T10:18:26Z</time>
      </trkpt>
      <trkpt lat="46.69611" lon="-1.94756">
        <ele>0.34</ele>
        <time>2024-07-03T10:18:27Z</time>
      </trkpt>
      <trkpt lat="46.69614" lon="-1.94753">
        <ele>0.3</ele>
        <time>2024-07-03T10:18:28Z</time>
      </trkpt>
      <trkpt lat="46.69615" lon="-1.9475">
        <ele>0.28</ele>
        <time>2024-07-03T10:18:29Z</time>
      </trkpt>
      <trkpt lat="46.69616" lon="-1.94746">
        <ele>0.27</ele>
        <time>2024-07-03T10:18:30Z</time>
      </trkpt>
      <trkpt lat="46.69617" lon="-1.94743">
        <ele>0.27</ele>
        <time>2024-07-03T10:18:31Z</time>
      </trkpt>
      <trkpt lat="46.69621" lon="-1.94687">
        <ele>0.27</ele>
        <time>2024-07-03T10:18:46Z</time>
      </trkpt>
      <trkpt lat="46.6961" lon="-1.94624">
        <ele>0.27</ele>
        <time>2024-07-03T10:19:01Z</time>
      </trkpt>
      <trkpt lat="46.69591" lon="-1.9458">
        <ele>-0.27</ele>
        <time>2024-07-03T10:19:16Z</time>
      </trkpt>
      <trkpt lat="46.69566" lon="-1.94564">
        <ele>-0.41</ele>
        <time>2024-07-03T10:19:27Z</time>
      </trkpt>
      <trkpt lat="46.69568" lon="-1.9457">
        <ele>-1.14</ele>
        <time>2024-07-03T10:19:41Z</time>
      </trkpt>
      <trkpt lat="46.69569" lon="-1.94571">
        <ele>-1.13</ele>
        <time>2024-07-03T10:20:03Z</time>
      </trkpt>
      <trkpt lat="46.69566" lon="-1.9457">
        <ele>-1.11</ele>
        <time>2024-07-03T10:20:35Z</time>
      </trkpt>
      <trkpt lat="46.69566" lon="-1.94569">
        <ele>-1.14</ele>
        <time>2024-07-03T10:22:24Z</time>
      </trkpt>
    </trkseg>
  </trk>
</gpx>